Time;durP1;ratioP1;P1;durP2;ratioP2;P2;SDS_P1;SDS_P2;PMS_P1;PMS_P2;Temp;Humidity;BMP_temperature;BMP_pressure;BME280_temperature;BME280_humidity;BME280_pressure;Samples;Min_cycle;Max_cycle;Signal;HPM_P1;HPM_P2
2021/12/14 00:01:09;;;;;;;;;25.00;21.50;;;;;6.37;100.00;102460.34;4885282;29;45378;-80
2021/12/14 00:03:39;;;;;;;;;27.67;23.67;;;;;6.38;100.00;102470.00;4883847;29;44790;-81
2021/12/14 00:06:04;;;;;;;;;24.67;19.67;;;;;6.40;100.00;102470.88;4881414;29;45066;-80
2021/12/14 00:08:36;;;;;;;;;31.25;24.25;;;;;6.32;100.00;102473.66;4882427;29;45192;-80
2021/12/14 00:16:09;;;;;;;;;30.00;21.67;;;;;6.34;100.00;102466.59;4882228;29;44806;-81
2021/12/14 00:18:35;;;;;;;;;29.00;25.00;;;;;6.32;100.00;102457.81;4881506;29;45236;-80
2021/12/14 00:21:12;;;;;;;;;25.67;23.67;;;;;6.35;100.00;102448.97;4881897;29;45235;-79
2021/12/14 00:26:22;;;;;;;;;29.67;27.67;;;;;6.34;100.00;102440.19;4881945;29;44705;-80
2021/12/14 00:28:50;;;;;;;;;23.67;19.67;;;;;6.41;100.00;102454.13;4881396;29;45409;-79
2021/12/14 00:31:18;;;;;;;;;25.33;22.00;;;;;6.38;100.00;102463.00;4881589;29;44850;-80
2021/12/14 00:33:52;;;;;;;;;29.00;24.33;;;;;6.38;100.00;102463.00;4881474;29;45367;-80
2021/12/14 00:36:21;;;;;;;;;29.25;24.25;;;;;6.43;100.00;102458.47;4864354;29;44953;-81
2021/12/14 00:38:49;;;;;;;;;34.33;30.00;;;;;6.39;100.00;102448.03;4881762;29;45325;-80
2021/12/14 00:41:21;;;;;;;;;33.67;27.00;;;;;6.26;100.00;102450.03;4884356;29;45486;-80
2021/12/14 00:43:47;;;;;;;;;15.33;15.33;;;;;6.06;100.00;102441.69;4886631;29;45481;-80
2021/12/14 00:46:14;;;;;;;;;22.67;21.67;;;;;5.82;100.00;102451.78;4864889;29;44922;-81
2021/12/14 00:48:40;;;;;;;;;22.50;20.00;;;;;5.80;100.00;102468.53;4884856;29;45310;-79
2021/12/14 00:51:07;;;;;;;;;14.00;9.50;;;;;5.80;100.00;102472.06;4884565;29;45319;-79
2021/12/14 00:53:34;;;;;;;;;20.00;18.33;;;;;5.86;100.00;102461.38;4884632;29;44700;-80
2021/12/14 00:56:03;;;;;;;;;21.00;16.25;;;;;5.93;100.00;102452.47;4884265;29;44913;-78
2021/12/14 00:58:30;;;;;;;;;20.00;15.00;;;;;6.02;100.00;102447.91;4884691;29;45133;-78
2021/12/14 01:01:05;;;;;;;;;17.00;12.00;;;;;6.06;100.00;102439.91;4883080;29;44923;-79
2021/12/14 01:03:33;;;;;;;;;12.25;12.25;;;;;6.11;100.00;102450.38;4881403;29;45357;-80
2021/12/14 01:05:59;;;;;;;;;18.00;13.50;;;;;6.11;100.00;102455.66;4882653;29;44797;-79
2021/12/14 01:08:34;;;;;;;;;15.50;15.00;;;;;6.09;100.00;102454.78;4886935;29;45066;-80
2021/12/14 01:11:42;;;;;;;;;15.00;11.00;;;;;6.15;100.00;102458.19;4882579;29;44874;-79
2021/12/14 01:14:32;;;;;;;;;21.50;13.00;;;;;6.14;100.00;102464.38;4879398;29;45570;-79
2021/12/14 01:17:13;;;;;;;;;16.75;15.50;;;;;6.16;100.00;102472.25;4882133;29;45406;-79
2021/12/14 01:19:44;;;;;;;;;11.75;11.25;;;;;6.22;100.00;102464.19;4884729;29;45248;-79
2021/12/14 01:23:00;;;;;;;;;9.00;6.00;;;;;6.29;100.00;102464.97;4885574;29;44684;-80
2021/12/14 01:25:18;;;;;;;;;19.75;17.75;;;;;6.27;100.00;102472.88;4880591;29;44846;-79
2021/12/14 01:27:55;;;;;;;;;20.00;15.75;;;;;6.23;100.00;102478.25;4881002;29;44822;-79
2021/12/14 01:30:41;;;;;;;;;21.25;18.50;;;;;6.24;100.00;102480.00;4879999;29;45412;-80
2021/12/14 01:33:12;;;;;;;;;22.00;14.00;;;;;6.15;100.00;102497.78;4880603;29;45322;-79
2021/12/14 01:35:42;;;;;;;;;22.50;20.50;;;;;6.15;100.00;102486.34;4879321;29;45663;-80
2021/12/14 01:38:21;;;;;;;;;17.00;15.25;;;;;6.21;100.00;102488.84;4880895;29;45386;-79
2021/12/14 01:40:55;;;;;;;;;20.00;19.25;;;;;6.20;100.00;102500.31;4880703;29;45359;-79
2021/12/14 01:43:28;;;;;;;;;17.75;13.50;;;;;6.04;100.00;102514.69;4880987;29;44723;-78
2021/12/14 01:45:55;;;;;;;;;15.75;9.50;;;;;5.98;100.00;102517.47;4881071;29;44663;-79
2021/12/14 01:48:22;;;;;;;;;16.25;10.25;;;;;5.90;100.00;102525.50;4881007;29;44751;-79
2021/12/14 01:50:52;;;;;;;;;20.75;14.25;;;;;5.88;100.00;102525.50;4880988;29;45460;-80
2021/12/14 01:53:20;;;;;;;;;18.75;15.25;;;;;5.91;100.00;102524.59;4881433;29;44752;-79
2021/12/14 01:55:53;;;;;;;;;15.75;14.25;;;;;5.97;100.00;102527.16;4880036;29;44741;-79
2021/12/14 01:58:21;;;;;;;;;16.25;13.50;;;;;6.02;100.00;102538.47;4881032;29;45290;-80
2021/12/14 02:00:55;;;;;;;;;10.25;8.00;;;;;6.07;100.00;102530.47;4881448;29;45290;-80
2021/12/14 02:03:29;;;;;;;;;19.75;15.75;;;;;6.05;100.00;102542.84;4882903;29;44775;-79
2021/12/14 02:05:54;;;;;;;;;24.25;19.75;;;;;5.99;100.00;102540.28;4882005;29;45501;-79
2021/12/14 02:08:29;;;;;;;;;15.25;14.00;;;;;6.02;100.00;102545.53;4881177;29;45307;-79
2021/12/14 02:10:57;;;;;;;;;20.00;19.25;;;;;6.01;100.00;102543.78;4880618;29;45377;-79
2021/12/14 02:13:29;;;;;;;;;14.00;14.00;;;;;5.99;100.00;102562.25;4881218;29;45396;-80
2021/12/14 02:15:55;;;;;;;;;19.75;17.75;;;;;5.91;100.00;102572.97;4880379;29;44691;-80
2021/12/14 02:18:23;;;;;;;;;19.50;16.00;;;;;5.99;100.00;102574.59;4880580;29;44822;-79
2021/12/14 02:21:05;;;;;;;;;18.25;15.00;;;;;6.00;100.00;102576.34;4880245;29;45388;-79
2021/12/14 02:23:33;;;;;;;;;19.25;15.50;;;;;6.05;100.00;102583.28;4880380;29;45275;-79
2021/12/14 02:26:03;;;;;;;;;18.50;13.25;;;;;6.11;100.00;102588.44;4880702;29;44800;-79
2021/12/14 02:28:29;;;;;;;;;19.00;14.75;;;;;6.10;100.00;102568.22;4880109;29;45538;-79
2021/12/14 02:30:57;;;;;;;;;26.25;22.75;;;;;6.12;100.00;102558.50;4879447;29;45443;-79
2021/12/14 02:33:25;;;;;;;;;18.50;16.00;;;;;6.16;100.00;102559.31;4863175;29;44914;-80
2021/12/14 02:35:52;;;;;;;;;31.00;27.67;;;;;6.17;100.00;102551.38;4880279;29;44794;-79
2021/12/14 02:38:18;;;;;;;;;26.25;23.50;;;;;6.25;100.00;102539.81;4880300;29;45233;-77
2021/12/14 02:40:57;;;;;;;;;30.67;25.67;;;;;6.26;100.00;102529.22;4878428;29;45299;-80
2021/12/14 02:43:33;;;;;;;;;28.25;22.25;;;;;6.28;100.00;102508.94;4880356;29;44846;-80
2021/12/14 02:46:09;;;;;;;;;30.25;25.75;;;;;6.30;100.00;102496.59;4881675;29;44805;-80
2021/12/14 02:48:35;;;;;;;;;28.00;26.25;;;;;6.33;100.00;102511.47;4880643;29;45440;-79
2021/12/14 02:51:15;;;;;;;;;21.25;19.00;;;;;6.22;100.00;102509.06;4878519;29;46766;-80
2021/12/14 02:53:44;;;;;;;;;23.25;21.75;;;;;6.19;100.00;102527.63;4879910;29;45240;-79
2021/12/14 02:56:13;;;;;;;;;21.75;18.25;;;;;6.25;100.00;102521.34;4879363;29;44798;-80
2021/12/14 02:58:40;;;;;;;;;23.50;18.50;;;;;6.25;100.00;102523.97;4879933;29;44728;-80
2021/12/14 03:01:08;;;;;;;;;22.25;21.00;;;;;6.19;100.00;102514.41;4882149;29;45093;-80
2021/12/14 03:03:35;;;;;;;;;11.50;11.00;;;;;6.12;100.00;102515.44;4883095;29;44841;-78
2021/12/14 03:06:02;;;;;;;;;15.25;12.50;;;;;6.09;100.00;102515.47;4883518;29;45352;-80
2021/12/14 03:08:31;;;;;;;;;12.00;12.00;;;;;6.12;100.00;102504.88;4883896;29;45298;-79
2021/12/14 03:11:12;;;;;;;;;14.75;11.00;;;;;6.20;100.00;102507.38;4884468;29;45216;-79
2021/12/14 03:13:44;;;;;;;;;19.00;17.50;;;;;6.18;100.00;102502.97;4886021;29;44870;-79
2021/12/14 03:16:21;;;;;;;;;22.50;13.00;;;;;6.15;100.00;102492.50;4885242;29;45253;-79
2021/12/14 03:18:49;;;;;;;;;17.50;13.00;;;;;6.23;100.00;102489.69;4883641;29;44748;-79
2021/12/14 03:21:24;;;;;;;;;19.50;14.00;;;;;6.22;100.00;102477.41;4884927;29;45358;-79
2021/12/14 03:23:56;;;;;;;;;23.75;19.25;;;;;6.25;100.00;102466.78;4891413;29;45374;-79
2021/12/14 03:26:27;;;;;;;;;21.50;16.25;;;;;6.26;100.00;102468.50;4889971;29;45524;-81
2021/12/14 03:28:57;;;;;;;;;21.25;16.25;;;;;6.23;100.00;102473.84;4883934;29;45583;-80
2021/12/14 03:31:31;;;;;;;;;13.00;13.00;;;;;6.25;100.00;102485.25;4882601;29;46420;-79
2021/12/14 03:34:19;;;;;;;;;22.00;19.00;;;;;6.26;100.00;102481.72;4882643;29;45412;-80
2021/12/14 03:36:52;;;;;;;;;18.75;16.50;;;;;6.35;100.00;102486.78;4883082;29;45258;-79
2021/12/14 03:39:37;;;;;;;;;20.25;18.25;;;;;6.40;100.00;102484.94;4865253;29;44977;-79
2021/12/14 03:42:07;;;;;;;;;19.25;17.00;;;;;6.47;100.00;102471.59;4882378;29;45424;-80
2021/12/14 03:44:40;;;;;;;;;19.50;15.50;;;;;6.53;100.00;102467.06;4882587;29;45402;-81
2021/12/14 03:47:14;;;;;;;;;23.00;18.25;;;;;6.58;100.00;102464.31;4882664;29;44726;-79
2021/12/14 03:49:47;;;;;;;;;21.25;18.25;;;;;6.60;100.00;102455.44;4882394;29;44850;-81
2021/12/14 03:52:16;;;;;;;;;21.00;15.75;;;;;6.62;100.00;102468.59;4882202;29;45086;-79
2021/12/14 03:54:42;;;;;;;;;13.75;13.75;;;;;6.66;100.00;102465.00;4882703;29;44780;-79
2021/12/14 03:57:09;;;;;;;;;22.00;19.50;;;;;6.65;100.00;102477.34;4882253;29;45355;-80
2021/12/14 03:59:36;;;;;;;;;17.25;14.75;;;;;6.60;100.00;102473.94;4882239;29;45403;-80
2021/12/14 04:02:04;;;;;;;;;15.25;15.25;;;;;6.61;100.00;102462.47;4882482;29;45277;-79
2021/12/14 04:04:36;;;;;;;;;19.50;17.50;;;;;6.66;100.00;102455.28;4884638;29;44800;-79
2021/12/14 04:07:04;;;;;;;;;21.75;18.50;;;;;6.73;100.00;102452.53;4886907;29;45414;-79
2021/12/14 04:09:32;;;;;;;;;20.25;16.50;;;;;6.78;100.00;102446.25;4886126;29;45318;-80
2021/12/14 04:11:58;;;;;;;;;18.25;17.50;;;;;6.80;100.00;102447.06;4880924;29;45254;-80
2021/12/14 04:14:28;;;;;;;;;30.00;23.50;;;;;6.86;100.00;102446.03;4883002;29;44766;-80
2021/12/14 04:16:57;;;;;;;;;22.50;21.25;;;;;6.89;100.00;102444.19;4883166;29;45432;-80
2021/12/14 04:19:27;;;;;;;;;28.50;21.50;;;;;6.87;100.00;102440.75;4882503;29;45438;-80
2021/12/14 04:21:58;;;;;;;;;17.00;16.00;;;;;6.87;100.00;102440.75;4883895;29;45696;-80
2021/12/14 04:24:30;;;;;;;;;19.00;16.00;;;;;6.84;100.00;102439.94;4882612;29;45342;-80
2021/12/14 04:26:59;;;;;;;;;22.50;19.25;;;;;6.75;100.00;102446.28;4881658;29;45284;-80
2021/12/14 04:29:25;;;;;;;;;22.00;15.50;;;;;6.72;100.00;102445.50;4881628;29;45342;-78
2021/12/14 04:31:51;;;;;;;;;25.25;22.75;;;;;6.63;100.00;102457.16;4864812;29;44981;-79
2021/12/14 04:34:19;;;;;;;;;30.00;26.00;;;;;6.51;100.00;102476.78;4881770;29;44886;-80
2021/12/14 04:36:47;;;;;;;;;30.00;25.50;;;;;6.49;100.00;102480.38;4881967;29;45371;-80
2021/12/14 04:53:01;;;;;;;;;27.50;22.75;;;;;6.59;100.00;102481.91;4884770;29;45063;-80
2021/12/14 04:55:27;;;;;;;;;28.33;23.67;;;;;6.62;100.00;102482.69;4881656;29;45278;-80
2021/12/14 04:57:52;;;;;;;;;30.75;25.25;;;;;6.67;100.00;102480.81;4865348;29;44793;-80
2021/12/14 05:00:18;;;;;;;;;21.75;18.25;;;;;6.69;100.00;102470.22;4881517;29;44925;-81
2021/12/14 05:02:43;;;;;;;;;20.67;20.33;;;;;6.69;100.00;102465.81;4881333;29;45345;-80
2021/12/14 05:05:10;;;;;;;;;26.67;26.67;;;;;6.73;100.00;102477.16;4881194;29;45319;-81
2021/12/14 05:10:13;;;;;;;;;27.75;24.50;;;;;6.83;100.00;102472.53;4881036;29;45473;-79
2021/12/14 05:12:39;;;;;;;;;26.00;23.00;;;;;6.89;100.00;102467.09;4881150;29;45565;-80
2021/12/14 05:15:08;;;;;;;;;21.50;19.75;;;;;6.92;100.00;102464.41;4881193;29;44747;-80
2021/12/14 05:17:38;;;;;;;;;26.25;22.00;;;;;6.92;100.00;102472.34;4882331;29;44690;-81
2021/12/14 05:20:06;;;;;;;;;30.00;25.50;;;;;6.84;100.00;102475.13;4882260;29;44960;-79
2021/12/14 05:22:35;;;;;;;;;24.50;23.50;;;;;6.83;100.00;102465.47;4882018;29;45449;-81
2021/12/14 05:25:05;;;;;;;;;29.75;23.75;;;;;6.87;100.00;102476.84;4883564;29;44766;-81
2021/12/14 05:27:43;;;;;;;;;30.33;23.67;;;;;6.91;100.00;102473.22;4886104;29;45379;-79
2021/12/14 05:30:11;;;;;;;;;26.00;22.75;;;;;6.91;100.00;102463.53;4881947;29;45485;-80
2021/12/14 05:32:39;;;;;;;;;28.67;24.33;;;;;6.94;100.00;102473.16;4881628;29;45279;-81
2021/12/14 05:35:10;;;;;;;;;25.25;23.75;;;;;6.96;100.00;102476.59;4881414;29;45300;-80
2021/12/14 05:37:44;;;;;;;;;31.67;26.67;;;;;6.97;100.00;102470.44;4880749;29;44747;-79
2021/12/14 05:40:19;;;;;;;;;32.67;25.00;;;;;6.99;100.00;102463.34;4880242;29;44885;-79
2021/12/14 05:45:31;;;;;;;;;24.75;20.00;;;;;6.94;100.00;102473.16;4880777;29;44801;-81
2021/12/14 05:47:58;;;;;;;;;25.25;24.50;;;;;6.87;100.00;102468.94;4880991;29;45331;-80
2021/12/14 05:50:30;;;;;;;;;31.75;26.75;;;;;6.84;100.00;102474.28;4879553;29;45452;-80
2021/12/14 05:52:55;;;;;;;;;24.25;22.00;;;;;6.80;100.00;102477.88;4880564;29;45446;-80
2021/12/14 05:55:25;;;;;;;;;31.00;26.50;;;;;6.84;100.00;102482.19;4880701;29;44862;-79
2021/12/14 05:57:53;;;;;;;;;31.75;23.50;;;;;6.88;100.00;102482.09;4880807;29;45417;-79
2021/12/14 06:00:19;;;;;;;;;33.50;32.25;;;;;6.83;100.00;102480.47;4880747;29;44862;-80
2021/12/14 06:02:46;;;;;;;;;30.75;28.75;;;;;6.78;100.00;102482.34;4883654;29;45008;-80
2021/12/14 06:05:18;;;;;;;;;28.25;26.50;;;;;6.78;100.00;102485.00;4885002;29;44707;-79
2021/12/14 06:07:44;;;;;;;;;30.00;25.25;;;;;6.81;100.00;102487.53;4886581;29;44699;-79
2021/12/14 06:10:12;;;;;;;;;29.50;25.50;;;;;6.85;100.00;102500.66;4887872;29;45185;-81
2021/12/14 06:12:40;;;;;;;;;30.50;26.25;;;;;6.86;100.00;102488.31;4881426;29;45269;-82
2021/12/14 06:15:10;;;;;;;;;27.50;24.75;;;;;6.86;100.00;102494.44;4863489;29;45351;-80
2021/12/14 06:17:39;;;;;;;;;32.50;29.00;;;;;6.79;100.00;102499.94;4880867;29;45378;-81
2021/12/14 06:20:15;;;;;;;;;31.67;29.00;;;;;6.62;100.00;102521.41;4879463;29;44892;-80
2021/12/14 06:22:42;;;;;;;;;28.50;23.25;;;;;6.60;100.00;102525.88;4884710;29;45278;-81
2021/12/14 06:25:15;;;;;;;;;39.50;32.00;;;;;6.61;100.00;102528.47;4884771;29;44715;-81
2021/12/14 06:27:43;;;;;;;;;31.50;28.25;;;;;6.63;100.00;102533.75;4886472;29;45434;-80
2021/12/14 06:30:22;;;;;;;;;38.33;33.33;;;;;6.62;100.00;102540.81;4886574;29;44995;-82
2021/12/14 06:33:06;;;;;;;;;38.33;35.00;;;;;6.55;100.00;102543.59;4856872;29;45362;-81
2021/12/14 06:35:37;;;;;;;;;37.00;26.67;;;;;6.52;100.00;102548.91;4889203;29;44753;-81
2021/12/14 06:38:30;;;;;;;;;32.67;32.33;;;;;6.34;100.00;102555.47;4875368;29;44737;-81
2021/12/14 06:55:20;;;;;;;;;31.00;26.00;;;;;6.05;100.00;102583.28;4778547;29;45329;-80
2021/12/14 06:57:45;;;;;;;;;28.67;23.00;;;;;6.05;100.00;102588.56;4743483;30;45325;-81
2021/12/14 07:00:11;;;;;;;;;30.00;28.67;;;;;5.98;100.00;102579.00;4744817;30;44728;-80
2021/12/14 07:02:37;;;;;;;;;37.00;27.33;;;;;5.95;100.00;102579.06;4744855;30;44821;-82
2021/12/14 07:05:04;;;;;;;;;27.50;26.25;;;;;6.01;100.00;102578.09;4740659;30;44794;-80
2021/12/14 07:07:30;;;;;;;;;27.25;25.25;;;;;6.04;100.00;102570.09;4739878;30;45109;-81
2021/12/14 07:10:01;;;;;;;;;40.33;32.33;;;;;6.06;100.00;102578.88;4744634;30;45419;-81
2021/12/14 07:12:32;;;;;;;;;23.75;20.75;;;;;6.07;100.00;102575.31;4726928;30;44817;-81
2021/12/14 07:15:00;;;;;;;;;29.33;27.67;;;;;6.08;100.00;102571.78;4734876;30;44758;-82
2021/12/14 07:17:28;;;;;;;;;32.33;28.33;;;;;6.18;100.00;102576.00;4734807;30;45328;-82
2021/12/14 07:20:06;;;;;;;;;29.25;24.75;;;;;6.27;100.00;102573.16;4735336;30;45526;-81
2021/12/14 07:22:43;;;;;;;;;29.00;26.33;;;;;6.35;100.00;102563.34;4719076;30;45017;-81
2021/12/14 07:25:37;;;;;;;;;36.33;33.33;;;;;6.43;100.00;102563.16;4783807;29;44771;-83
2021/12/14 07:28:09;;;;;;;;;34.00;31.25;;;;;6.49;100.00;102559.56;4863813;29;46591;-82
2021/12/14 07:30:53;;;;;;;;;23.25;23.25;;;;;6.56;100.00;102562.03;4888006;29;44802;-82
2021/12/14 07:33:28;;;;;;;;;37.00;30.67;;;;;6.63;100.00;102571.56;4884506;29;45288;-82
2021/12/14 07:36:11;;;;;;;;;32.50;27.00;;;;;6.73;100.00;102566.97;4882559;29;45380;-82
2021/12/14 07:38:45;;;;;;;;;30.33;30.33;;;;;6.79;100.00;102566.81;4881668;29;47287;-83
2021/12/14 07:41:24;;;;;;;;;34.25;26.50;;;;;6.87;100.00;102572.81;4883375;29;45428;-83
2021/12/14 07:44:04;;;;;;;;;24.75;23.25;;;;;6.93;100.00;102567.41;4882772;29;45318;-82
2021/12/14 07:46:35;;;;;;;;;26.25;22.00;;;;;7.00;100.00;102567.25;4882536;29;44814;-81
2021/12/14 07:49:18;;;;;;;;;32.25;26.75;;;;;7.05;100.00;102575.94;4883023;29;45323;-82
2021/12/14 07:51:50;;;;;;;;;30.75;25.75;;;;;7.12;100.00;102580.19;4885067;29;44790;-86
2021/12/14 07:54:27;;;;;;;;;27.75;25.50;;;;;7.19;100.00;102587.06;4883942;29;44870;-82
2021/12/14 07:57:03;;;;;;;;;28.75;26.50;;;;;7.24;100.00;102576.38;4880655;29;44888;-83
2021/12/14 07:59:35;;;;;;;;;30.00;22.00;;;;;7.30;100.00;102577.13;4882356;29;45198;-82
2021/12/14 08:02:10;;;;;;;;;29.00;25.50;;;;;7.33;100.00;102584.97;4882986;29;45423;-83
2021/12/14 08:04:38;;;;;;;;;34.00;25.50;;;;;7.37;100.00;102577.84;4866314;29;45443;-81
2021/12/14 08:07:06;;;;;;;;;31.25;26.75;;;;;7.44;100.00;102588.22;4886891;29;45253;-81
2021/12/14 08:09:49;;;;;;;;;29.50;25.50;;;;;7.50;100.00;102589.88;4888832;29;45419;-82
2021/12/14 08:12:30;;;;;;;;;31.50;29.00;;;;;7.56;100.00;102587.06;4890802;29;45648;-83
2021/12/14 08:15:07;;;;;;;;;32.50;25.75;;;;;7.61;100.00;102590.47;4883617;29;44652;-81
2021/12/14 08:17:33;;;;;;;;;26.50;23.25;;;;;7.65;100.00;102604.50;4882564;29;44797;-82
2021/12/14 08:19:58;;;;;;;;;31.50;26.25;;;;;7.68;100.00;102605.25;4882506;29;45212;-82
2021/12/14 08:22:31;;;;;;;;;31.50;25.75;;;;;7.71;100.00;102601.69;4883196;29;45392;-82
2021/12/14 08:25:01;;;;;;;;;45.50;30.75;;;;;7.75;100.00;102607.78;4883359;29;45239;-83
2021/12/14 08:27:29;;;;;;;;;36.75;29.00;;;;;7.78;100.00;102607.69;4883249;29;45536;-83
2021/12/14 08:30:00;;;;;;;;;30.50;25.25;;;;;7.83;100.00;102617.28;4883427;29;45058;-82
2021/12/14 08:32:34;;;;;;;;;49.33;41.00;;;;;7.89;100.00;102624.19;4894649;29;45387;-86
2021/12/14 08:35:04;;;;;;;;;30.50;26.00;;;;;7.94;100.00;102607.28;4884150;29;44881;-84
2021/12/14 08:37:45;;;;;;;;;27.00;25.25;;;;;7.99;100.00;102610.66;4899824;29;45375;-84
2021/12/14 08:40:18;;;;;;;;;29.75;25.25;;;;;8.05;100.00;102608.75;4901602;29;45184;-83
2021/12/14 08:43:02;;;;;;;;;30.75;29.50;;;;;8.08;100.00;102609.56;4902852;29;45381;-84
2021/12/14 08:45:48;;;;;;;;;37.67;32.00;;;;;8.13;100.00;102609.44;4888577;29;44850;-84
2021/12/14 08:48:19;;;;;;;;;35.25;27.00;;;;;8.07;100.00;102604.28;4887149;29;45490;-84
2021/12/14 08:50:53;;;;;;;;;39.50;31.75;;;;;8.09;100.00;102618.38;4885967;29;45388;-84
2021/12/14 08:53:20;;;;;;;;;26.50;21.00;;;;;7.90;100.00;102610.91;4890022;29;45286;-85
2021/12/14 08:55:51;;;;;;;;;31.50;27.00;;;;;7.92;100.00;102622.31;4884753;29;45397;-86
2021/12/14 08:58:17;;;;;;;;;29.75;26.25;;;;;7.90;100.00;102621.47;4882133;29;44817;-85
2021/12/14 09:00:48;;;;;;;;;34.25;25.00;;;;;7.81;100.00;102629.66;4904701;29;45117;-85
2021/12/14 09:03:25;;;;;;;;;34.75;29.75;;;;;7.82;100.00;102636.66;4893898;29;44832;-85
2021/12/14 09:05:52;;;;;;;;;31.75;26.25;;;;;7.86;100.00;102635.69;4883221;29;44769;-82
2021/12/14 09:08:20;;;;;;;;;32.25;27.75;;;;;7.90;100.00;102632.06;4881037;29;45337;-85
2021/12/14 09:10:49;;;;;;;;;30.25;27.25;;;;;7.90;100.00;102623.25;4881662;29;45348;-84
2021/12/14 09:13:15;;;;;;;;;32.00;27.75;;;;;7.88;100.00;102628.59;4865032;29;45399;-83
2021/12/14 09:15:50;;;;;;;;;30.25;28.00;;;;;7.86;100.00;102622.47;4881045;29;44901;-84
2021/12/14 09:18:18;;;;;;;;;30.25;28.50;;;;;7.79;100.00;102614.75;4881808;29;45340;-84
2021/12/14 09:20:59;;;;;;;;;27.00;22.50;;;;;7.80;100.00;102619.97;4879857;29;45269;-83
2021/12/14 09:23:34;;;;;;;;;36.25;30.75;;;;;7.87;100.00;102620.69;4877358;29;45512;-84
2021/12/14 09:26:03;;;;;;;;;33.25;30.50;;;;;7.92;100.00;102624.09;4868746;29;44745;-83
2021/12/14 09:28:38;;;;;;;;;30.50;29.00;;;;;7.94;100.00;102617.00;4888851;29;44869;-84
2021/12/14 09:31:08;;;;;;;;;34.75;30.75;;;;;7.97;100.00;102628.34;4887696;29;45026;-83
2021/12/14 09:33:38;;;;;;;;;30.00;23.00;;;;;8.02;100.00;102633.53;4867007;29;44819;-84
2021/12/14 09:36:11;;;;;;;;;41.25;32.25;;;;;8.03;100.00;102626.47;4875184;29;44735;-85
2021/12/14 09:38:40;;;;;;;;;40.00;32.75;;;;;7.97;100.00;102625.69;4883862;29;44945;-85
2021/12/14 09:41:09;;;;;;;;;34.00;31.75;;;;;7.90;100.00;102629.41;4883197;29;45067;-83
2021/12/14 09:43:35;;;;;;;;;40.25;34.25;;;;;7.80;100.00;102630.56;4884910;29;45329;-88
2021/12/14 09:46:04;;;;;;;;;38.50;32.25;;;;;7.77;100.00;102633.28;4876823;29;44766;-87
2021/12/14 09:48:41;;;;;;;;;38.50;34.50;;;;;7.81;100.00;102634.06;4890130;29;44790;-86
2021/12/14 09:51:12;;;;;;;;;41.75;31.75;;;;;7.87;100.00;102640.06;4888528;29;45424;-84
2021/12/14 09:53:41;;;;;;;;;45.67;32.33;;;;;7.89;100.00;102640.91;4888324;29;44791;-86
2021/12/14 09:56:11;;;;;;;;;42.67;36.67;;;;;7.84;100.00;102650.75;4874182;29;45288;-84
2021/12/14 09:58:42;;;;;;;;;45.25;34.00;;;;;7.84;100.00;102648.09;4888527;29;45371;-87
2021/12/14 10:01:34;;;;;;;;;42.00;33.00;;;;;7.85;100.00;102663.06;4889914;29;45179;-85
2021/12/14 10:04:05;;;;;;;;;33.00;31.50;;;;;7.89;100.00;102655.94;4886595;29;44716;-85
2021/12/14 10:06:33;;;;;;;;;42.50;35.00;;;;;7.94;100.00;102643.44;4883267;29;44694;-86
2021/12/14 10:09:05;;;;;;;;;42.00;35.33;;;;;8.06;100.00;102648.41;4864849;29;45224;-87
2021/12/14 10:11:47;;;;;;;;;42.67;35.00;;;;;8.14;100.00;102645.59;4886480;29;45502;-86
2021/12/14 10:14:18;;;;;;;;;37.75;29.00;;;;;8.24;100.00;102650.59;4892198;29;45397;-89
2021/12/14 10:16:44;;;;;;;;;43.67;34.33;;;;;8.31;100.00;102647.78;4895337;29;44578;-86
2021/12/14 10:19:13;;;;;;;;;44.00;35.33;;;;;8.37;100.00;102643.22;4889882;29;44773;-87
2021/12/14 10:21:46;;;;;;;;;49.33;35.33;;;;;8.40;100.00;102637.84;4887253;29;45086;-87
2021/12/14 10:24:12;;;;;;;;;41.67;35.00;;;;;8.40;100.00;102642.25;4888650;29;45447;-86
2021/12/14 10:26:44;;;;;;;;;43.33;31.67;;;;;8.45;100.00;102650.94;4887662;29;44816;-87
2021/12/14 10:29:09;;;;;;;;;37.67;32.00;;;;;8.50;100.00;102641.97;4898408;29;45287;-87
2021/12/14 10:31:39;;;;;;;;;44.50;34.75;;;;;8.55;100.00;102648.91;4890873;29;46448;-83
2021/12/14 10:34:09;;;;;;;;;38.00;31.50;;;;;8.51;100.00;102642.84;4890322;29;45366;-82
2021/12/14 10:36:42;;;;;;;;;49.33;34.00;;;;;8.57;100.00;102649.75;4890689;29;44794;-83
2021/12/14 10:44:27;;;;;;;;;38.75;32.25;;;;;8.77;100.00;102649.19;4880213;29;45389;-84
2021/12/14 10:46:55;;;;;;;;;47.00;36.33;;;;;8.79;100.00;102642.94;4879866;29;45332;-83
2021/12/14 10:49:24;;;;;;;;;37.67;34.33;;;;;8.84;100.00;102650.75;4881614;29;45300;-83
2021/12/14 10:51:55;;;;;;;;;43.00;34.67;;;;;8.85;100.00;102649.81;4881773;29;44989;-82
2021/12/14 10:54:21;;;;;;;;;48.00;33.00;;;;;8.91;100.00;102650.53;4881720;29;45550;-82
2021/12/14 10:56:56;;;;;;;;;49.50;36.25;;;;;8.98;100.00;102651.22;4882340;29;45378;-83
2021/12/14 10:59:27;;;;;;;;;46.50;37.25;;;;;9.03;100.00;102649.28;4884298;29;45172;-83
2021/12/14 11:01:53;;;;;;;;;39.00;33.50;;;;;9.11;100.00;102654.38;4880216;29;45488;-83
2021/12/14 11:04:33;;;;;;;;;43.25;34.75;;;;;9.20;100.00;102646.16;4879725;29;45381;-84
2021/12/14 11:07:01;;;;;;;;;35.75;31.50;;;;;9.31;100.00;102646.69;4864060;29;44844;-83
2021/12/14 11:12:08;;;;;;;;;37.00;31.75;;;;;9.51;100.00;102641.59;4879418;29;45244;-84
2021/12/14 11:14:37;;;;;;;;;41.67;36.00;;;;;9.56;100.00;102646.75;4883547;29;45405;-84
2021/12/14 11:20:34;;;;;;;;;45.67;35.33;;;;;9.58;100.00;102631.69;4885656;29;44802;-82
2021/12/14 11:22:59;;;;;;;;;50.33;39.00;;;;;9.55;100.00;102631.78;4871151;29;45454;-83
2021/12/14 11:25:27;;;;;;;;;53.33;41.67;;;;;9.50;100.00;102629.25;4868473;29;45440;-84
2021/12/14 11:28:06;;;;;;;;;41.67;35.67;;;;;9.46;100.00;102637.38;4885408;29;44809;-84
2021/12/14 11:30:37;;;;;;;;;42.00;34.33;;;;;9.39;100.00;102634.06;4868308;29;45317;-85
2021/12/14 11:33:20;;;;;;;;;50.00;40.67;;;;;9.41;100.00;102631.34;4877363;29;45331;-85
2021/12/14 11:36:05;;;;;;;;;50.33;40.67;;;;;9.45;100.00;102633.00;4906719;29;44873;-84
2021/12/14 11:38:53;;;;;;;;;42.33;35.67;;;;;9.41;100.00;102632.22;4905911;29;45256;-84
2021/12/14 11:41:31;;;;;;;;;45.50;39.25;;;;;9.45;100.00;102630.34;4909035;29;44905;-84
2021/12/14 11:44:25;;;;;;;;;52.33;34.67;;;;;9.42;100.00;102628.63;4906554;29;45176;-84
2021/12/14 11:47:00;;;;;;;;;47.00;38.00;;;;;9.45;100.00;102633.84;4897286;29;44881;-82
2021/12/14 11:49:45;;;;;;;;;67.33;50.67;;;;;9.54;100.00;102619.44;4888410;29;45267;-84
2021/12/14 11:52:11;;;;;;;;;46.67;37.33;;;;;9.64;100.00;102609.38;4903042;29;44816;-84
2021/12/14 11:54:45;;;;;;;;;53.67;38.00;;;;;9.71;100.00;102614.41;4901112;29;45390;-85
2021/12/14 11:57:14;;;;;;;;;47.75;36.75;;;;;9.73;100.00;102607.28;4902319;29;45241;-85
2021/12/14 11:59:39;;;;;;;;;55.67;42.00;;;;;9.75;100.00;102600.13;4901815;29;44818;-84
2021/12/14 12:02:05;;;;;;;;;48.67;35.67;;;;;9.74;100.00;102601.06;4890101;29;44905;-84
2021/12/14 12:04:35;;;;;;;;;50.33;38.67;;;;;9.76;100.00;102604.50;4895239;29;45410;-83
2021/12/14 12:09:35;;;;;;;;;32.67;31.67;;;;;9.69;100.00;102594.19;4885198;29;44921;-82
2021/12/14 12:12:01;;;;;;;;;47.33;39.67;;;;;9.69;100.00;102602.13;4900977;29;45471;-83
2021/12/14 12:14:43;;;;;;;;;53.33;41.00;;;;;9.70;100.00;102594.13;4901081;29;46210;-82
2021/12/14 12:17:33;;;;;;;;;50.33;42.00;;;;;9.75;100.00;102588.66;4904743;29;44852;-84
2021/12/14 12:20:14;;;;;;;;;48.00;40.00;;;;;9.73;100.00;102591.38;4904152;29;45478;-83
2021/12/14 12:23:27;;;;;;;;;54.00;40.33;;;;;9.74;100.00;102594.88;4908959;29;44835;-84
2021/12/14 12:26:01;;;;;;;;;53.67;43.00;;;;;9.77;100.00;102595.66;4808308;29;45277;-84